Time;durP1;ratioP1;P1;durP2;ratioP2;P2;SDS_P1;SDS_P2;PMS_P1;PMS_P2;Temp;Humidity;BMP_temperature;BMP_pressure;BME280_temperature;BME280_humidity;BME280_pressure;Samples;Min_cycle;Max_cycle;Signal;HPM_P1;HPM_P2
2022/03/28 00:00:00;;;;;;;;;;;11.10;74.60;;;;;;5095964;28;19924;-65
2022/03/28 00:02:27;;;;;;;;;;;11.10;74.70;;;;;;5095179;28;19925;-64
2022/03/28 00:04:54;;;;;;;;;;;11.00;74.70;;;;;;5095035;28;19924;-64
2022/03/28 00:07:22;;;;;;;;;;;11.00;74.80;;;;;;5095197;28;19924;-65
2022/03/28 00:09:48;;;;;;;;;;;11.00;74.90;;;;;;5096560;28;19924;-65
2022/03/28 00:12:15;;;;;;;;;;;11.00;75.50;;;;;;5094946;28;19931;-64
2022/03/28 00:14:41;;;;;;;;;;;11.00;75.50;;;;;;5095577;28;19993;-64
2022/03/28 00:17:08;;;;;;;;;;;10.90;75.70;;;;;;5098545;28;19924;-64
2022/03/28 00:19:34;;;;;;;;;;;10.90;75.70;;;;;;5098473;28;19920;-64
2022/03/28 00:22:01;;;;;;;;;;;10.80;75.80;;;;;;5098709;28;19927;-64
2022/03/28 00:24:29;;;;;;;;;;;10.80;76.40;;;;;;5098566;28;20003;-63
2022/03/28 00:26:56;;;;;;;;;;;10.70;77.10;;;;;;5098518;28;19920;-64
2022/03/28 00:29:22;;;;;;;;;;;10.70;77.80;;;;;;5098682;28;19974;-64
2022/03/28 00:31:49;;;;;;;;;;;10.60;78.30;;;;;;5098579;28;19920;-65
2022/03/28 00:34:21;;;;;;;;;;;10.60;79.00;;;;;;5098583;28;19924;-65
2022/03/28 00:36:48;;;;;;;;;;;10.60;79.50;;;;;;5098507;28;19967;-65
2022/03/28 00:39:16;;;;;;;;;;;10.50;80.10;;;;;;5103649;28;19927;-65
2022/03/28 00:41:44;;;;;;;;;;;10.50;80.60;;;;;;5100571;28;19923;-65
2022/03/28 00:44:10;;;;;;;;;;;10.50;81.40;;;;;;5098474;28;19923;-64
2022/03/28 00:46:37;;;;;;;;;;;10.40;81.60;;;;;;5108678;28;19924;-64
2022/03/28 00:49:04;;;;;;;;;;;10.40;81.70;;;;;;5102090;28;20003;-64
2022/03/28 00:51:30;;;;;;;;;;;10.40;81.40;;;;;;5098301;28;19923;-63
2022/03/28 00:53:58;;;;;;;;;;;10.30;81.10;;;;;;5118308;28;19927;-65
2022/03/28 00:56:24;;;;;;;;;;;10.20;80.60;;;;;;5120032;28;19936;-65
2022/03/28 00:58:52;;;;;;;;;;;10.20;80.70;;;;;;5117361;28;19927;-66
2022/03/28 01:01:19;;;;;;;;;;;10.10;81.10;;;;;;5112286;28;20025;-64
2022/03/28 01:03:45;;;;;;;;;;;10.10;81.10;;;;;;5098680;28;19920;-64
2022/03/28 01:06:12;;;;;;;;;;;10.10;80.60;;;;;;5098409;28;20379;-64
2022/03/28 01:08:39;;;;;;;;;;;10.00;80.50;;;;;;5098480;28;19954;-64
2022/03/28 01:11:08;;;;;;;;;;;10.00;80.80;;;;;;5097847;28;19956;-64
2022/03/28 01:13:35;;;;;;;;;;;10.00;81.10;;;;;;5098102;28;19920;-65
2022/03/28 01:16:03;;;;;;;;;;;10.00;81.40;;;;;;5097546;28;19920;-65
2022/03/28 01:18:29;;;;;;;;;;;9.90;83.10;;;;;;5097366;28;19920;-64
2022/03/28 01:20:57;;;;;;;;;;;9.90;83.60;;;;;;5097304;28;20359;-65
2022/03/28 01:23:24;;;;;;;;;;;9.90;83.90;;;;;;5097549;28;19920;-64
2022/03/28 01:25:52;;;;;;;;;;;9.80;84.30;;;;;;5097516;28;19926;-64
2022/03/28 01:28:18;;;;;;;;;;;9.80;85.00;;;;;;5097519;28;20349;-64
2022/03/28 01:30:45;;;;;;;;;;;9.70;85.50;;;;;;5097512;28;19920;-64
2022/03/28 01:33:12;;;;;;;;;;;9.70;86.20;;;;;;5101913;28;19915;-65
2022/03/28 01:35:39;;;;;;;;;;;9.70;87.00;;;;;;5116217;28;19924;-65
2022/03/28 01:38:08;;;;;;;;;;;9.60;87.80;;;;;;5099325;28;19928;-65
2022/03/28 01:40:36;;;;;;;18.97;12.80;;;9.50;88.50;;;;;;5098077;28;19924;-65
2022/03/28 01:43:04;;;;;;;22.83;13.00;;;9.50;89.20;;;;;;5096758;28;20493;-64
2022/03/28 01:45:31;;;;;;;19.13;13.37;;;9.40;89.60;;;;;;5097006;28;20461;-64
2022/03/28 01:47:57;;;;;;;18.30;12.77;;;9.40;90.00;;;;;;5103327;28;20460;-65
2022/03/28 01:50:25;;;;;;;18.60;11.70;;;9.40;90.00;;;;;;5109839;28;20450;-64
2022/03/28 01:52:52;;;;;;;16.83;12.47;;;9.30;90.40;;;;;;5103503;28;20501;-64
2022/03/28 01:55:20;;;;;;;22.20;13.53;;;9.20;91.00;;;;;;5098624;28;20521;-64
2022/03/28 01:57:47;;;;;;;18.33;14.33;;;9.10;91.40;;;;;;5098314;28;20482;-65
2022/03/28 02:00:15;;;;;;;17.37;12.77;;;9.00;91.80;;;;;;5110252;28;20936;-64
2022/03/28 02:02:42;;;;;;;15.53;12.43;;;8.90;92.60;;;;;;5113398;28;20478;-65
2022/03/28 02:05:11;;;;;;;18.37;13.77;;;8.80;93.30;;;;;;5107529;28;20457;-64
2022/03/28 02:07:39;;;;;;;17.47;13.20;;;8.70;93.90;;;;;;5099588;28;20464;-63
2022/03/28 02:10:07;;;;;;;17.57;12.97;;;8.60;94.40;;;;;;5107093;28;20515;-65
2022/03/28 02:12:36;;;;;;;17.47;12.50;;;8.50;94.90;;;;;;5115674;28;20482;-65
2022/03/28 02:15:04;;;;;;;20.93;13.50;;;8.40;95.40;;;;;;5115907;28;20457;-66
2022/03/28 02:17:32;;;;;;;19.90;13.10;;;8.30;95.90;;;;;;5116600;28;20469;-64
2022/03/28 02:19:59;;;;;;;17.10;13.77;;;8.30;96.40;;;;;;5117156;28;20473;-64
2022/03/28 02:22:26;;;;;;;19.30;13.07;;;8.20;96.70;;;;;;5114130;28;20499;-65
2022/03/28 02:24:52;;;;;;;16.77;12.30;;;8.20;97.00;;;;;;5113140;28;20452;-64
2022/03/28 02:27:19;;;;;;;18.50;12.60;;;8.10;97.30;;;;;;5112873;28;20476;-64
2022/03/28 02:29:47;;;;;;;17.07;13.60;;;8.10;97.80;;;;;;5113354;28;20449;-64
2022/03/28 02:32:14;;;;;;;17.60;12.20;;;8.00;98.20;;;;;;5114813;28;20469;-64
2022/03/28 02:34:41;;;;;;;17.60;13.17;;;8.00;98.50;;;;;;5114921;28;20473;-65
2022/03/28 02:37:08;;;;;;;19.03;13.00;;;8.00;98.70;;;;;;5114478;28;20449;-65
2022/03/28 02:39:34;;;;;;;23.07;13.93;;;8.00;99.00;;;;;;5114608;28;20474;-65
2022/03/28 02:42:01;;;;;;;18.43;12.77;;;8.00;99.20;;;;;;5114301;28;20461;-65
2022/03/28 02:44:28;;;;;;;26.20;14.00;;;8.00;99.50;;;;;;5114990;28;20449;-65
2022/03/28 02:46:56;;;;;;;20.17;14.27;;;7.90;99.80;;;;;;5115129;28;20446;-65
2022/03/28 02:49:22;;;;;;;22.57;13.50;;;7.90;99.90;;;;;;5114446;28;20449;-65
2022/03/28 02:51:49;;;;;;;19.80;13.53;;;7.80;99.90;;;;;;5115738;28;20553;-65
2022/03/28 02:54:16;;;;;;;18.63;13.70;;;7.80;99.90;;;;;;5114712;28;20456;-65
2022/03/28 02:56:43;;;;;;;18.33;13.47;;;7.80;99.90;;;;;;5114908;28;20801;-64
2022/03/28 02:59:12;;;;;;;16.83;12.43;;;7.70;99.90;;;;;;5114721;28;20476;-65
2022/03/28 03:01:38;;;;;;;19.00;14.40;;;7.70;99.90;;;;;;5101577;28;20453;-65
2022/03/28 03:04:07;;;;;;;19.10;14.20;;;7.70;99.90;;;;;;5097863;28;20438;-65
2022/03/28 03:06:33;;;;;;;18.50;14.33;;;7.70;99.90;;;;;;5098695;28;20453;-64
2022/03/28 03:09:00;;;;;;;18.57;13.53;;;7.70;99.90;;;;;;5097838;28;20445;-65
2022/03/28 03:11:27;;;;;;;17.23;13.27;;;7.70;99.90;;;;;;5097651;28;20450;-64
2022/03/28 03:13:56;;;;;;;19.00;14.00;;;7.70;99.90;;;;;;5097221;28;20476;-64
2022/03/28 03:16:23;;;;;;;19.33;13.97;;;7.70;99.90;;;;;;5096932;28;20532;-65
2022/03/28 03:18:49;;;;;;;17.47;13.17;;;7.60;99.90;;;;;;5096557;28;20476;-64
2022/03/28 03:21:18;;;;;;;18.63;13.50;;;7.50;99.90;;;;;;5096470;28;20802;-64
2022/03/28 03:23:44;;;;;;;18.27;13.27;;;7.50;99.90;;;;;;5100442;28;20484;-64
2022/03/28 03:26:11;;;;;;;18.80;14.80;;;7.40;99.90;;;;;;5106933;28;20445;-64
2022/03/28 03:28:38;;;;;;;15.07;12.33;;;7.40;99.90;;;;;;5099461;28;20456;-64
2022/03/28 03:31:06;;;;;;;20.13;12.80;;;7.40;99.90;;;;;;5101382;28;20449;-65
2022/03/28 03:33:33;;;;;;;16.40;14.23;;;7.40;99.90;;;;;;5104736;28;20507;-64
2022/03/28 03:36:00;;;;;;;19.03;13.20;;;7.40;99.90;;;;;;5098972;28;20445;-64
2022/03/28 03:38:28;;;;;;;15.83;12.90;;;7.40;99.90;;;;;;5099077;28;20477;-64
2022/03/28 03:40:55;;;;;;;19.33;13.70;;;7.40;99.90;;;;;;5099462;28;20465;-64
2022/03/28 03:43:22;;;;;;;14.70;12.00;;;7.40;99.90;;;;;;5098281;28;20825;-64
2022/03/28 03:45:49;;;;;;;15.57;12.60;;;7.30;99.90;;;;;;5097901;28;20453;-63
2022/03/28 03:48:16;;;;;;;16.57;12.63;;;7.20;99.90;;;;;;5098504;28;20785;-65
2022/03/28 03:50:42;;;;;;;16.90;13.50;;;7.20;99.90;;;;;;5101078;28;20579;-64
2022/03/28 03:53:09;;;;;;;16.37;13.10;;;7.10;99.90;;;;;;5101514;28;20477;-64
2022/03/28 03:55:37;;;;;;;17.90;14.23;;;7.10;99.90;;;;;;5101404;28;20484;-64
2022/03/28 03:58:04;;;;;;;18.80;14.27;;;7.00;99.90;;;;;;5101589;28;20496;-64
2022/03/28 04:00:31;;;;;;;19.10;12.07;;;7.00;99.90;;;;;;5100601;28;20449;-64
2022/03/28 04:02:58;;;;;;;17.20;12.37;;;7.00;99.90;;;;;;5100742;28;20481;-64
2022/03/28 04:05:25;;;;;;;18.73;12.00;;;7.00;99.90;;;;;;5113310;28;20520;-64
2022/03/28 04:07:52;;;;;;;15.93;12.23;;;7.00;99.90;;;;;;5106064;28;20453;-64
2022/03/28 04:10:18;;;;;;;17.87;12.70;;;7.00;99.90;;;;;;5101994;28;20449;-64
2022/03/28 04:12:46;;;;;;;15.43;12.90;;;7.00;99.90;;;;;;5101405;28;20477;-64
2022/03/28 04:15:14;;;;;;;13.17;11.30;;;6.90;99.90;;;;;;5100630;28;20453;-64
2022/03/28 04:17:42;;;;;;;16.63;12.00;;;6.90;99.90;;;;;;5100312;28;20818;-65
2022/03/28 04:20:12;;;;;;;15.70;12.30;;;6.90;99.90;;;;;;5100330;28;20484;-64
2022/03/28 04:22:40;;;;;;;16.70;12.10;;;6.90;99.90;;;;;;5101160;28;20465;-64
2022/03/28 04:25:08;;;;;;;15.13;12.57;;;6.90;99.90;;;;;;5100352;28;20456;-64
2022/03/28 04:27:35;;;;;;;18.20;13.00;;;6.90;99.90;;;;;;5100725;28;20453;-65
2022/03/28 04:30:04;;;;;;;19.53;13.70;;;6.80;99.90;;;;;;5102126;28;20471;-64
2022/03/28 04:32:31;;;;;;;18.67;12.80;;;6.80;99.90;;;;;;5111555;28;20479;-65
2022/03/28 04:34:58;;;;;;;17.67;12.77;;;6.70;99.90;;;;;;5099606;28;20460;-64
2022/03/28 04:37:24;;;;;;;21.80;12.90;;;6.70;99.90;;;;;;5100298;28;20819;-64
2022/03/28 04:39:51;;;;;;;16.13;12.80;;;6.70;99.90;;;;;;5100672;28;20473;-64
2022/03/28 04:42:18;;;;;;;20.77;13.93;;;6.70;99.90;;;;;;5100130;28;20469;-65
2022/03/28 04:44:45;;;;;;;20.80;12.90;;;6.70;99.90;;;;;;5099462;28;20456;-64
2022/03/28 04:47:13;;;;;;;18.33;12.70;;;6.70;99.90;;;;;;5099258;28;20479;-64
2022/03/28 04:49:39;;;;;;;17.83;11.93;;;6.70;99.90;;;;;;5100564;28;20776;-63
2022/03/28 04:52:06;;;;;;;17.70;12.30;;;6.70;99.90;;;;;;5099139;28;20477;-65
2022/03/28 04:54:33;;;;;;;17.50;12.37;;;6.70;99.90;;;;;;5099631;28;20460;-64
2022/03/28 04:57:00;;;;;;;21.23;14.20;;;6.70;99.90;;;;;;5099509;28;20453;-64
2022/03/28 04:59:28;;;;;;;19.40;11.70;;;6.70;99.90;;;;;;5107592;28;20480;-64
2022/03/28 05:01:55;;;;;;;18.93;12.53;;;6.60;99.90;;;;;;5106777;28;20488;-64
2022/03/28 05:04:23;;;;;;;18.57;13.20;;;6.60;99.90;;;;;;5109905;28;20436;-64
2022/03/28 05:06:49;;;;;;;16.27;13.13;;;6.60;99.90;;;;;;5110877;28;20446;-64
2022/03/28 05:09:16;;;;;;;22.60;12.50;;;6.50;99.90;;;;;;5104631;28;20445;-64
2022/03/28 05:11:43;;;;;;;19.20;13.30;;;6.50;99.90;;;;;;5103860;28;20450;-64
2022/03/28 05:14:10;;;;;;;18.00;12.40;;;6.40;99.90;;;;;;5104128;28;20453;-64
2022/03/28 05:16:37;;;;;;;19.13;12.87;;;6.30;99.90;;;;;;5103761;28;20897;-64
2022/03/28 05:19:04;;;;;;;16.87;12.37;;;6.30;99.90;;;;;;5099846;28;21014;-64
2022/03/28 05:21:33;;;;;;;20.83;12.53;;;6.20;99.90;;;;;;5103533;28;20445;-64
2022/03/28 05:23:59;;;;;;;16.13;12.87;;;6.30;99.90;;;;;;5106217;28;20473;-64
2022/03/28 05:26:27;;;;;;;18.43;13.07;;;6.20;99.90;;;;;;5107588;28;20456;-64
2022/03/28 05:28:54;;;;;;;15.80;12.63;;;6.20;99.90;;;;;;5108405;28;20448;-65
2022/03/28 05:31:21;;;;;;;19.97;13.30;;;6.20;99.90;;;;;;5105870;28;20930;-64
2022/03/28 05:33:47;;;;;;;16.07;12.47;;;6.30;99.90;;;;;;5102107;28;20474;-64
2022/03/28 05:36:15;;;;;;;18.43;13.40;;;6.40;99.90;;;;;;5104254;28;20495;-65
2022/03/28 05:38:43;;;;;;;16.43;12.83;;;6.40;99.90;;;;;;5099660;28;20469;-64
2022/03/28 05:41:10;;;;;;;16.50;12.70;;;6.50;99.90;;;;;;5099455;28;20454;-64
2022/03/28 05:43:38;;;;;;;16.87;11.53;;;6.50;99.90;;;;;;5099105;28;20478;-64
2022/03/28 05:46:05;;;;;;;16.50;12.87;;;6.50;99.90;;;;;;5100061;28;20954;-64
2022/03/28 05:48:33;;;;;;;15.30;11.93;;;6.60;99.90;;;;;;5100765;28;20454;-64
2022/03/28 05:50:59;;;;;;;17.20;12.83;;;6.70;99.90;;;;;;5099940;28;20800;-64
2022/03/28 05:53:26;;;;;;;13.73;11.53;;;6.70;99.90;;;;;;5099964;28;20543;-64
2022/03/28 05:55:54;;;;;;;17.53;12.53;;;6.80;99.90;;;;;;5099674;28;20450;-63
2022/03/28 05:58:21;;;;;;;20.93;13.80;;;6.80;99.90;;;;;;5100134;28;20441;-64
2022/03/28 06:00:47;;;;;;;16.83;13.27;;;6.80;99.90;;;;;;5105762;28;20453;-64
2022/03/28 06:03:14;;;;;;;18.47;12.70;;;6.80;99.90;;;;;;5110388;28;20482;-64
2022/03/28 06:05:41;;;;;;;17.97;12.37;;;6.90;99.90;;;;;;5103958;28;20452;-64
2022/03/28 06:08:10;;;;;;;18.40;13.20;;;7.00;99.90;;;;;;5101140;28;20453;-64
2022/03/28 06:10:37;;;;;;;22.27;12.90;;;7.10;99.90;;;;;;5100704;28;20812;-64
2022/03/28 06:13:05;;;;;;;20.77;12.50;;;7.20;99.90;;;;;;5099289;28;20476;-62
2022/03/28 06:15:36;;;;;;;16.83;12.47;;;7.20;99.90;;;;;;5099865;28;20476;-63
2022/03/28 06:18:04;;;;;;;17.30;13.03;;;7.40;99.90;;;;;;5101101;28;20508;-63
2022/03/28 06:20:31;;;;;;;18.50;12.60;;;7.80;99.90;;;;;;5100744;28;20901;-65
2022/03/28 06:22:58;;;;;;;19.87;11.53;;;8.30;99.90;;;;;;5108698;28;20473;-65
2022/03/28 06:25:25;;;;;;;15.83;11.90;;;8.80;98.70;;;;;;5108179;28;20456;-64
2022/03/28 06:27:53;;;;;;;18.63;12.47;;;9.30;96.20;;;;;;5110513;28;20845;-65
2022/03/28 06:30:21;;;;;;;20.33;12.20;;;9.70;94.40;;;;;;5103972;28;20766;-65
2022/03/28 06:32:48;;;;;;;18.53;12.27;;;10.30;92.60;;;;;;5098416;28;20551;-64
2022/03/28 06:35:15;;;;;;;21.30;11.47;;;10.80;90.60;;;;;;5100780;28;20444;-65
2022/03/28 06:37:42;;;;;;;21.13;13.80;;;11.30;86.60;;;;;;5099680;28;20438;-64
2022/03/28 06:40:10;;;;;;;19.70;12.40;;;11.80;83.20;;;;;;5098649;28;20465;-64
2022/03/28 06:42:36;;;;;;;16.53;12.60;;;12.30;80.30;;;;;;5104043;28;20473;-65
2022/03/28 06:45:05;;;;;;;18.90;12.50;;;12.80;77.20;;;;;;5112286;28;20454;-64
2022/03/28 06:47:33;;;;;;;18.90;12.30;;;13.20;74.60;;;;;;5104284;28;20449;-64
2022/03/28 06:50:00;;;;;;;19.23;12.80;;;13.70;72.90;;;;;;5103106;28;20456;-65
2022/03/28 06:52:26;;;;;;;17.17;13.17;;;13.90;69.80;;;;;;5097954;28;20469;-65
2022/03/28 06:54:53;;;;;;;24.20;13.03;;;14.20;68.30;;;;;;5097079;28;20961;-64
2022/03/28 06:57:20;;;;;;;14.03;12.23;;;14.30;67.00;;;;;;5099856;28;20471;-64
2022/03/28 06:59:47;;;;;;;22.83;13.30;;;14.20;65.50;;;;;;5097207;28;20494;-64
2022/03/28 07:02:14;;;;;;;17.43;12.93;;;14.30;64.70;;;;;;5096635;28;20848;-64
2022/03/28 07:04:42;;;;;;;16.83;12.57;;;14.30;64.30;;;;;;5096330;28;20786;-64
2022/03/28 07:07:09;;;;;;;20.03;13.37;;;14.60;63.80;;;;;;5096733;28;20442;-64
2022/03/28 07:09:36;;;;;;;20.33;13.13;;;15.00;63.10;;;;;;5096253;28;20940;-64
2022/03/28 07:12:05;;;;;;;14.17;12.67;;;15.50;61.20;;;;;;5095891;28;20481;-65
2022/03/28 07:14:32;;;;;;;16.90;14.07;;;15.80;59.90;;;;;;5097341;28;20454;-64
2022/03/28 07:16:59;;;;;;;19.77;13.40;;;16.00;59.40;;;;;;5097968;28;20856;-65
2022/03/28 07:19:26;;;;;;;21.43;13.23;;;16.10;58.50;;;;;;5096127;28;20473;-65
2022/03/28 07:21:54;;;;;;;17.80;13.47;;;16.30;59.30;;;;;;5097134;28;20460;-65
2022/03/28 07:24:21;;;;;;;17.03;13.37;;;16.50;59.40;;;;;;5096234;28;20816;-65
2022/03/28 07:26:49;;;;;;;24.53;14.50;;;16.90;58.50;;;;;;5096924;28;20791;-65
2022/03/28 07:29:17;;;;;;;15.77;13.63;;;17.20;58.00;;;;;;5097798;28;20441;-64
2022/03/28 07:31:44;;;;;;;18.43;14.00;;;17.50;57.10;;;;;;5096123;28;20457;-64
2022/03/28 07:34:30;;;;;;;19.90;14.33;;;17.90;55.50;;;;;;5075246;28;21305;-65
2022/03/28 07:36:59;;;;;;;18.20;14.87;;;18.10;55.50;;;;;;5076137;28;20932;-64
2022/03/28 07:39:26;;;;;;;22.80;15.00;;;18.20;54.00;;;;;;5076343;28;20481;-65
2022/03/28 07:41:53;;;;;;;17.73;13.17;;;18.30;53.70;;;;;;5075870;28;20446;-65
2022/03/28 07:44:20;;;;;;;23.67;15.57;;;18.50;53.10;;;;;;5076462;28;20446;-65
2022/03/28 07:46:48;;;;;;;18.13;14.90;;;18.70;52.80;;;;;;5076866;28;20454;-64
2022/03/28 07:49:16;;;;;;;21.60;14.83;;;19.00;52.60;;;;;;5077171;28;20477;-66
2022/03/28 07:51:43;;;;;;;32.03;16.00;;;19.40;53.10;;;;;;5076686;28;20953;-65
2022/03/28 07:54:11;;;;;;;33.43;16.43;;;19.70;52.60;;;;;;5075220;28;20461;-65
2022/03/28 07:56:38;;;;;;;22.20;15.20;;;20.20;52.60;;;;;;5075198;28;20789;-65
2022/03/28 07:59:05;;;;;;;20.50;15.03;;;20.50;50.00;;;;;;5075330;28;20461;-65
2022/03/28 08:01:32;;;;;;;25.53;16.50;;;20.90;50.00;;;;;;5083664;28;20450;-65
2022/03/28 08:03:58;;;;;;;25.60;15.67;;;20.70;49.20;;;;;;5083461;28;20474;-65
2022/03/28 08:06:25;;;;;;;21.47;15.63;;;21.20;49.80;;;;;;5080113;28;20453;-65
2022/03/28 08:08:52;;;;;;;23.70;15.80;;;21.40;48.30;;;;;;5076063;28;20941;-65
2022/03/28 08:11:20;;;;;;;18.70;16.80;;;21.60;47.50;;;;;;5075299;28;20538;-65
2022/03/28 08:13:47;;;;;;;30.93;15.90;;;21.60;47.30;;;;;;5075765;28;20831;-65
2022/03/28 08:16:14;;;;;;;19.90;15.00;;;22.10;47.80;;;;;;5075373;28;20458;-65
2022/03/28 08:18:41;;;;;;;23.03;15.97;;;22.20;47.20;;;;;;5074866;28;20527;-65
2022/03/28 08:21:08;;;;;;;18.73;14.83;;;22.70;46.40;;;;;;5074605;28;20473;-66
2022/03/28 08:23:35;;;;;;;18.53;16.10;;;22.90;45.50;;;;;;5078148;28;20576;-66
2022/03/28 08:26:02;;;;;;;21.13;16.20;;;23.30;45.40;;;;;;5080083;28;20454;-65
2022/03/28 08:28:30;;;;;;;18.67;15.20;;;23.50;45.00;;;;;;5074659;28;20449;-65
2022/03/28 08:30:57;;;;;;;20.47;17.00;;;23.20;45.00;;;;;;5075470;28;20446;-66
2022/03/28 08:33:24;;;;;;;16.87;14.93;;;23.40;44.20;;;;;;5075714;28;20817;-65
2022/03/28 08:35:50;;;;;;;19.30;15.97;;;23.80;44.30;;;;;;5076098;28;20476;-66
2022/03/28 08:38:18;;;;;;;16.33;14.83;;;24.20;45.10;;;;;;5081048;28;20453;-66
2022/03/28 08:40:44;;;;;;;17.63;15.93;;;24.70;44.20;;;;;;5085737;28;20478;-66
2022/03/28 08:43:11;;;;;;;20.23;16.40;;;25.20;43.20;;;;;;5086490;28;20474;-66
2022/03/28 08:45:41;;;;;;;22.70;17.33;;;25.30;42.50;;;;;;5080198;28;20862;-65
2022/03/28 08:48:12;;;;;;;18.30;15.87;;;24.70;42.70;;;;;;5080620;28;20866;-65
2022/03/28 08:50:42;;;;;;;24.40;16.60;;;24.70;43.00;;;;;;5080347;28;20434;-66
2022/03/28 08:53:10;;;;;;;23.53;16.90;;;24.50;44.10;;;;;;5079890;28;20467;-65
2022/03/28 08:55:38;;;;;;;18.60;15.80;;;25.10;43.40;;;;;;5078955;28;20453;-66
2022/03/28 08:58:05;;;;;;;18.37;14.60;;;25.80;41.20;;;;;;5084629;28;20456;-66
2022/03/28 09:00:32;;;;;;;17.67;14.60;;;26.50;40.20;;;;;;5095096;28;20481;-66
2022/03/28 09:03:00;;;;;;;17.90;16.00;;;26.90;42.00;;;;;;5082224;28;20992;-65
2022/03/28 09:05:32;;;;;;;19.17;17.27;;;27.10;41.20;;;;;;5084991;28;20921;-66
2022/03/28 09:07:59;;;;;;;18.57;16.77;;;27.60;40.30;;;;;;5080492;28;20465;-65
2022/03/28 09:10:28;;;;;;;17.70;15.50;;;27.10;39.20;;;;;;5080017;28;20446;-65
2022/03/28 09:13:03;;;;;;;24.87;16.53;;;26.50;39.00;;;;;;5080389;28;20466;-65
2022/03/28 09:15:49;;;;;;;26.97;15.83;;;26.20;40.80;;;;;;5080072;28;20945;-65
2022/03/28 09:18:26;;;;;;;24.43;16.30;;;25.80;42.30;;;;;;5079890;28;20445;-65
2022/03/28 09:20:54;;;;;;;17.57;15.70;;;25.70;41.50;;;;;;5078698;28;20465;-65
2022/03/28 09:23:38;;;;;;;18.60;15.43;;;26.10;40.40;;;;;;5079960;28;20477;-65
2022/03/28 09:26:10;;;;;;;20.40;16.60;;;27.10;40.90;;;;;;5078706;28;20450;-65
2022/03/28 09:28:48;;;;;;;17.63;15.83;;;27.70;42.60;;;;;;5078597;28;20453;-65
2022/03/28 09:31:21;;;;;;;18.60;15.33;;;28.10;38.30;;;;;;5078353;28;20457;-65
2022/03/28 09:33:54;;;;;;;18.73;16.23;;;27.80;37.60;;;;;;5078215;28;20484;-65
2022/03/28 09:36:35;;;;;;;18.63;15.50;;;28.50;38.20;;;;;;5078168;28;20462;-65
2022/03/28 09:39:02;;;;;;;19.80;15.93;;;28.40;39.20;;;;;;5078291;28;20901;-64
2022/03/28 09:41:29;;;;;;;19.60;16.37;;;28.50;39.70;;;;;;5077947;28;20489;-65
2022/03/28 09:43:56;;;;;;;18.50;16.53;;;28.60;36.90;;;;;;5078544;28;20980;-65
2022/03/28 09:46:27;;;;;;;20.57;16.40;;;28.80;36.10;;;;;;5078136;28;20454;-65
2022/03/28 09:48:57;;;;;;;18.57;16.30;;;28.30;38.10;;;;;;5078716;28;20820;-65
2022/03/28 09:51:26;;;;;;;19.53;16.40;;;28.70;38.90;;;;;;5078774;28;20440;-65
2022/03/28 09:53:53;;;;;;;17.93;15.73;;;29.20;36.40;;;;;;5077304;28;20474;-65
2022/03/28 09:56:20;;;;;;;18.67;16.43;;;30.10;35.70;;;;;;5077570;28;20450;-65
2022/03/28 09:58:49;;;;;;;18.63;16.30;;;29.40;34.40;;;;;;5078344;28;20461;-65
2022/03/28 10:01:19;;;;;;;18.00;16.20;;;29.70;34.20;;;;;;5078110;28;20563;-64
2022/03/28 10:03:47;;;;;;;21.67;15.77;;;29.80;33.00;;;;;;5077057;28;20493;-64
2022/03/28 10:06:16;;;;;;;18.13;16.17;;;29.80;37.50;;;;;;5081195;28;20446;-65
2022/03/28 10:08:43;;;;;;;17.10;15.30;;;30.00;32.60;;;;;;5088870;28;20460;-65
2022/03/28 10:11:11;;;;;;;16.73;14.87;;;30.40;32.80;;;;;;5089668;28;20472;-67
2022/03/28 10:13:38;;;;;;;17.00;15.20;;;30.90;32.50;;;;;;5093261;28;20470;-65
2022/03/28 10:16:06;;;;;;;17.83;16.03;;;31.20;33.90;;;;;;5088657;28;20472;-65
2022/03/28 10:18:35;;;;;;;17.47;15.53;;;31.50;31.10;;;;;;5087370;28;20454;-65
2022/03/28 10:21:04;;;;;;;19.10;17.20;;;31.80;31.10;;;;;;5082717;28;20531;-65
2022/03/28 10:23:36;;;;;;;15.77;13.60;;;31.90;31.40;;;;;;5077858;28;20470;-66
2022/03/28 10:26:07;;;;;;;18.47;15.43;;;32.10;30.40;;;;;;5076756;28;20438;-66
2022/03/28 10:28:34;;;;;;;20.53;15.20;;;32.20;33.20;;;;;;5076563;28;20439;-65
2022/03/28 10:31:15;;;;;;;16.70;14.87;;;31.90;31.40;;;;;;5076697;28;20461;-65
2022/03/28 10:33:52;;;;;;;17.70;15.43;;;32.10;30.50;;;;;;5076207;28;20469;-65
2022/03/28 10:36:27;;;;;;;18.70;16.10;;;32.20;30.50;;;;;;5076493;28;20442;-64
2022/03/28 10:39:16;;;;;;;17.30;15.50;;;31.90;31.00;;;;;;5075873;28;20514;-65
2022/03/28 10:41:44;;;;;;;;;;;31.80;34.90;;;;;;5075584;28;20477;-65
2022/03/28 10:44:11;;;;;;;;;;;31.00;32.70;;;;;;5076028;28;19924;-65
2022/03/28 10:46:37;;;;;;;;;;;31.00;31.30;;;;;;5076442;28;19924;-65
2022/03/28 10:49:06;;;;;;;18.63;16.30;;;31.10;31.90;;;;;;5075595;28;20461;-65
2022/03/28 10:51:34;;;;;;;18.17;16.27;;;31.40;32.90;;;;;;5075513;28;20447;-66
2022/03/28 10:54:03;;;;;;;19.40;17.40;;;31.00;33.30;;;;;;5075393;28;20474;-66
2022/03/28 10:56:33;;;;;;;18.37;16.47;;;31.40;35.40;;;;;;5075883;28;20960;-65
2022/03/28 10:59:07;;;;;;;23.00;16.70;;;31.40;35.80;;;;;;5075485;28;20454;-65
2022/03/28 11:01:35;;;;;;;19.17;17.13;;;30.90;33.10;;;;;;5077909;28;20484;-65
2022/03/28 11:04:05;;;;;;;18.83;15.90;;;30.40;34.30;;;;;;5074880;28;20977;-66
2022/03/28 11:06:50;;;;;;;18.80;16.67;;;30.60;33.80;;;;;;5074873;28;20434;-65
2022/03/28 11:09:50;;;;;;;22.80;17.17;;;30.40;34.30;;;;;;5076038;28;20457;-65
2022/03/28 11:12:19;;;;;;;29.60;18.63;;;30.00;34.40;;;;;;5075723;28;20477;-65
2022/03/28 11:14:56;;;;;;;18.63;16.03;;;29.50;35.40;;;;;;5077250;28;20454;-64
2022/03/28 11:17:24;;;;;;;20.67;15.43;;;28.80;36.50;;;;;;5081368;28;20415;-65
2022/03/28 11:20:08;;;;;;;19.87;17.10;;;28.50;36.80;;;;;;5095223;28;20437;-66
2022/03/28 11:22:44;;;;;;;21.03;17.27;;;28.10;36.60;;;;;;5077183;28;20474;-65
2022/03/28 11:25:35;;;;;;;18.50;15.20;;;27.30;36.30;;;;;;5075890;28;20461;-64
2022/03/28 11:28:03;;;;;;;;;;;26.70;38.20;;;;;;5076683;28;19974;-65
2022/03/28 11:30:31;;;;;;;;;;;26.00;39.10;;;;;;5075885;28;20350;-65
2022/03/28 11:32:58;;;;;;;;;;;25.40;39.60;;;;;;5076487;28;20379;-65
2022/03/28 11:35:24;;;;;;;;;;;25.20;41.10;;;;;;5087097;28;19931;-64
2022/03/28 11:37:51;;;;;;;;;;;24.90;43.20;;;;;;5087735;28;19957;-64
2022/03/28 11:40:19;;;;;;;;;;;24.90;41.10;;;;;;5076658;28;19975;-65
2022/03/28 11:42:49;;;;;;;;;;;24.70;40.20;;;;;;5076297;28;19924;-65
2022/03/28 11:45:18;;;;;;;;;;;24.40;41.90;;;;;;5075844;28;19924;-65
2022/03/28 11:47:52;;;;;;;;;;;24.50;42.60;;;;;;5076836;28;19968;-64
2022/03/28 11:50:19;;;;;;;;;;;24.50;41.30;;;;;;5085563;28;19954;-64
2022/03/28 11:52:49;;;;;;;;;;;24.50;42.20;;;;;;5085343;28;19963;-65
2022/03/28 11:55:19;;;;;;;;;;;24.20;42.40;;;;;;5075820;28;19932;-65
2022/03/28 12:00:32;;;;;;;;;;;24.20;42.20;;;;;;5075683;28;20152;-65
2022/03/28 12:03:01;;;;;;;;;;;24.30;45.50;;;;;;5076120;28;19924;-65
2022/03/28 12:05:28;;;;;;;;;;;24.40;43.30;;;;;;5075802;28;20283;-65
2022/03/28 12:07:56;;;;;;;;;;;24.60;44.30;;;;;;5078474;28;19924;-66
2022/03/28 12:10:23;;;;;;;;;;;24.30;43.20;;;;;;5078122;28;19934;-65
2022/03/28 12:12:50;;;;;;;;;;;24.30;44.50;;;;;;5082352;28;20394;-65
2022/03/28 12:15:23;;;;;;;;;;;24.60;45.20;;;;;;5088218;28;19924;-64
2022/03/28 12:17:52;;;;;;;;;;;24.90;44.10;;;;;;5087226;28;19924;-64
2022/03/28 12:20:22;;;;;;;;;;;25.00;43.60;;;;;;5087276;28;19931;-65
2022/03/28 12:22:48;;;;;;;;;;;25.20;43.70;;;;;;5090698;28;19991;-64
2022/03/28 12:25:25;;;;;;;;;;;25.40;43.60;;;;;;5086745;28;19931;-65
2022/03/28 12:27:53;;;;;;;;;;;25.60;45.30;;;;;;5079274;28;19925;-65
2022/03/28 12:30:20;;;;;;;;;;;25.90;43.20;;;;;;5080127;28;19924;-65
2022/03/28 12:32:47;;;;;;;;;;;26.10;41.80;;;;;;5079460;28;19933;-65
2022/03/28 12:35:14;;;;;;;;;;;26.30;41.50;;;;;;5078968;28;20414;-65
2022/03/28 12:37:42;;;;;;;;;;;26.30;40.80;;;;;;5080122;28;19924;-65
2022/03/28 12:40:09;;;;;;;;;;;26.20;40.90;;;;;;5079906;28;19974;-65
2022/03/28 12:42:36;;;;;;;;;;;25.80;40.70;;;;;;5079104;28;19924;-65
2022/03/28 12:45:02;;;;;;;;;;;25.60;41.50;;;;;;5080655;28;19931;-65
2022/03/28 12:47:30;;;;;;;;;;;25.50;39.50;;;;;;5079366;28;19974;-65
2022/03/28 12:49:57;;;;;;;;;;;25.30;40.70;;;;;;5080005;28;19925;-65
2022/03/28 12:52:31;;;;;;;;;;;25.50;43.10;;;;;;5079989;28;19929;-65
2022/03/28 12:54:59;;;;;;;;;;;25.50;39.00;;;;;;5080700;28;19929;-66
2022/03/28 12:57:27;;;;;;;;;;;25.50;40.60;;;;;;5081037;28;19931;-66
2022/03/28 12:59:54;;;;;;;;;;;25.60;41.10;;;;;;5080186;28;19928;-65
2022/03/28 13:02:21;;;;;;;;;;;25.60;40.10;;;;;;5079879;28;20307;-66
2022/03/28 13:04:49;;;;;;;;;;;25.50;39.70;;;;;;5080736;28;19929;-66